createdAt,value
2017-07-08T00:00:22.940Z,18.91
2017-07-08T00:01:31.797Z,19
2017-07-08T00:02:40.999Z,18.94
2017-07-08T00:03:49.893Z,18.92
2017-07-08T00:04:59.097Z,18.95
2017-07-08T00:06:07.954Z,19.02
2017-07-08T00:07:16.813Z,18.99
2017-07-08T00:08:25.670Z,18.99
2017-07-08T00:09:34.778Z,19.1
2017-07-08T00:10:43.638Z,19.1
2017-07-08T00:11:52.495Z,19.06
2017-07-08T00:13:01.353Z,19.04
2017-07-08T00:14:10.209Z,19.07
2017-07-08T00:15:19.214Z,19.07
2017-07-08T00:16:28.074Z,19.06
2017-07-08T00:17:36.931Z,19.1
2017-07-08T00:18:45.792Z,19.04
2017-07-08T00:19:54.644Z,19.11
2017-07-08T00:21:03.999Z,19.02
2017-07-08T00:22:12.856Z,19.02
2017-07-08T00:23:21.715Z,19.19
2017-07-08T00:24:30.573Z,19.1
2017-07-08T00:25:39.430Z,19.08
2017-07-08T00:26:48.437Z,19
2017-07-08T00:27:57.296Z,18.94
2017-07-08T00:29:06.154Z,18.92
2017-07-08T00:30:15.012Z,18.91
2017-07-08T00:31:23.869Z,18.9
2017-07-08T00:32:32.774Z,18.88
2017-07-08T00:33:41.631Z,18.84
2017-07-08T00:34:50.489Z,18.84
2017-07-08T00:35:59.342Z,18.98
2017-07-08T00:37:08.201Z,18.85
2017-07-08T00:38:17.158Z,18.87
2017-07-08T00:39:26.349Z,18.94
2017-07-08T00:40:35.205Z,18.98
2017-07-08T00:41:44.060Z,18.98
2017-07-08T00:42:52.918Z,18.84
2017-07-08T00:44:01.875Z,18.91
2017-07-08T00:45:10.732Z,18.9
2017-07-08T00:46:19.588Z,18.85
2017-07-08T00:47:28.447Z,18.84
2017-07-08T00:48:37.302Z,18.94
2017-07-08T00:49:46.412Z,18.81
2017-07-08T00:50:55.269Z,18.8
2017-07-08T00:52:04.125Z,18.78
2017-07-08T00:53:12.985Z,18.78
2017-07-08T00:54:21.836Z,18.75
2017-07-08T00:55:30.694Z,18.82
2017-07-08T00:56:39.552Z,18.8
2017-07-08T00:57:48.410Z,18.75
2017-07-08T00:58:57.264Z,18.7
2017-07-08T01:00:06.124Z,18.62
2017-07-08T01:01:14.984Z,18.6
2017-07-08T01:02:24.173Z,18.62
2017-07-08T01:03:33.037Z,18.66
2017-07-08T01:04:41.886Z,18.62
2017-07-08T01:05:50.750Z,18.6
2017-07-08T01:06:59.697Z,18.7
2017-07-08T01:08:08.554Z,18.7
2017-07-08T01:09:17.410Z,18.62
2017-07-08T01:10:26.266Z,18.66
2017-07-08T01:11:35.122Z,18.58
2017-07-08T01:12:44.230Z,18.6
2017-07-08T01:13:53.087Z,18.54
2017-07-08T01:15:01.945Z,18.57
2017-07-08T01:16:10.801Z,18.52
2017-07-08T01:17:19.722Z,18.51
2017-07-08T01:18:28.517Z,18.55
2017-07-08T01:19:37.372Z,18.41
2017-07-08T01:20:46.229Z,18.41
2017-07-08T01:21:55.086Z,18.45
2017-07-08T01:23:03.939Z,18.52
2017-07-08T01:24:12.797Z,18.47
2017-07-08T01:25:21.655Z,18.41
2017-07-08T01:26:30.512Z,18.57
2017-07-08T01:27:39.370Z,18.5
2017-07-08T01:28:48.560Z,18.47
2017-07-08T01:29:57.568Z,18.39
2017-07-08T01:31:06.758Z,18.51
2017-07-08T01:32:15.615Z,18.51
2017-07-08T01:33:24.471Z,18.52
2017-07-08T01:34:33.327Z,18.52
2017-07-08T01:35:42.234Z,18.5
2017-07-08T01:36:51.092Z,18.41
2017-07-08T01:37:59.953Z,18.44
2017-07-08T01:39:09.139Z,18.47
2017-07-08T01:40:17.997Z,18.48
2017-07-08T01:41:27.157Z,18.41
2017-07-08T01:42:36.012Z,18.51
2017-07-08T01:43:44.870Z,18.41
2017-07-08T01:44:53.723Z,18.42
2017-07-08T01:46:02.580Z,18.32
2017-07-08T01:47:11.585Z,18.45
2017-07-08T01:48:20.442Z,18.37
2017-07-08T01:49:29.298Z,18.42
2017-07-08T01:50:38.155Z,18.41
2017-07-08T01:51:47.011Z,18.32
2017-07-08T01:52:56.167Z,18.36
2017-07-08T01:54:05.023Z,18.32
2017-07-08T01:55:13.877Z,18.27
2017-07-08T01:56:22.735Z,18.37
2017-07-08T01:57:31.593Z,18.37
2017-07-08T01:58:40.498Z,18.3
2017-07-08T01:59:49.355Z,18.3
2017-07-08T02:00:58.213Z,18.33
2017-07-08T02:02:07.068Z,18.26
2017-07-08T02:03:15.924Z,18.29
2017-07-08T02:04:24.830Z,18.26
2017-07-08T02:05:33.690Z,18.33
2017-07-08T02:06:42.546Z,18.41
2017-07-08T02:07:51.406Z,18.32
2017-07-08T02:09:00.259Z,18.33
2017-07-08T02:10:09.118Z,18.3
2017-07-08T02:11:17.973Z,18.2
2017-07-08T02:12:26.830Z,18.27
2017-07-08T02:13:35.687Z,18.32
2017-07-08T02:14:44.541Z,18.29
2017-07-08T02:15:53.497Z,18.36
2017-07-08T02:17:02.354Z,18.21
2017-07-08T02:18:11.211Z,18.26
2017-07-08T02:19:20.070Z,18.12
2017-07-08T02:20:28.926Z,18.26
2017-07-08T02:21:38.085Z,18.26
2017-07-08T02:22:46.942Z,18.26
2017-07-08T02:23:55.797Z,18.14
2017-07-08T02:25:04.653Z,18.2
2017-07-08T02:26:13.505Z,18.2
2017-07-08T02:27:22.609Z,18.21
2017-07-08T02:28:31.467Z,18.27
2017-07-08T02:29:40.324Z,18.14
2017-07-08T02:30:49.180Z,18.15
2017-07-08T02:31:58.038Z,18.21
2017-07-08T02:33:07.196Z,18.23
2017-07-08T02:34:16.051Z,18.26
2017-07-08T02:35:24.910Z,18.25
2017-07-08T02:36:33.766Z,18.1
2017-07-08T02:37:42.624Z,18.14
2017-07-08T02:38:51.580Z,18.12
2017-07-08T02:40:00.435Z,18.1
2017-07-08T02:41:09.291Z,18.11
2017-07-08T02:42:18.152Z,18.11
2017-07-08T02:43:27.004Z,18.08
2017-07-08T02:44:36.011Z,18.11
2017-07-08T02:45:44.863Z,18.07
2017-07-08T02:46:53.723Z,18.03
2017-07-08T02:48:02.580Z,18.08
2017-07-08T02:49:11.445Z,18.1
2017-07-08T02:50:20.498Z,18.17
2017-07-08T02:51:29.355Z,18.14
2017-07-08T02:52:38.210Z,18.08
2017-07-08T02:53:47.067Z,18
2017-07-08T02:54:55.924Z,18.05
2017-07-08T02:56:05.268Z,17.97
2017-07-08T02:57:14.125Z,18.05
2017-07-08T02:58:22.982Z,18.08
2017-07-08T02:59:31.839Z,18.12
2017-07-08T03:00:40.695Z,18.05
2017-07-08T03:01:49.553Z,18.07
2017-07-08T03:02:58.411Z,18.02
2017-07-08T03:04:07.267Z,18.07
2017-07-08T03:05:16.122Z,18.11
2017-07-08T03:06:24.977Z,18.05
2017-07-08T03:07:34.133Z,18.08
2017-07-08T03:08:42.990Z,18
2017-07-08T03:09:51.847Z,18.17
2017-07-08T03:11:00.702Z,18.17
2017-07-08T03:12:09.559Z,18.07
2017-07-08T03:13:18.416Z,18.11
2017-07-08T03:14:27.272Z,18
2017-07-08T03:15:36.461Z,18.23
2017-07-08T03:16:45.317Z,18.11
2017-07-08T03:17:54.178Z,18.05
2017-07-08T03:19:03.235Z,18.07
2017-07-08T03:20:12.091Z,18.05
2017-07-08T03:21:20.944Z,18.07
2017-07-08T03:22:29.802Z,18.07
2017-07-08T03:23:38.658Z,18.11
2017-07-08T03:24:47.713Z,18.08
2017-07-08T03:25:56.570Z,18.11
2017-07-08T03:27:05.428Z,18.07
2017-07-08T03:28:14.282Z,18.08
2017-07-08T03:29:23.140Z,17.97
2017-07-08T03:30:32.431Z,17.93
2017-07-08T03:31:41.289Z,17.93
2017-07-08T03:32:50.143Z,17.89
2017-07-08T03:33:58.999Z,17.97
2017-07-08T03:35:07.854Z,17.95
2017-07-08T03:36:16.863Z,18
2017-07-08T03:37:25.718Z,17.89
2017-07-08T03:38:34.574Z,17.96
2017-07-08T03:39:43.430Z,17.93
2017-07-08T03:40:52.297Z,17.86
2017-07-08T03:42:01.304Z,17.84
2017-07-08T03:43:10.160Z,17.87
2017-07-08T03:44:19.018Z,17.86
2017-07-08T03:45:27.875Z,17.92
2017-07-08T03:46:36.731Z,17.9
2017-07-08T03:47:45.789Z,17.86
2017-07-08T03:48:54.647Z,17.84
2017-07-08T03:50:03.504Z,17.9
2017-07-08T03:51:12.361Z,18.02
2017-07-08T03:52:21.217Z,17.93
2017-07-08T03:53:30.126Z,17.9
2017-07-08T03:54:38.982Z,17.89
2017-07-08T03:55:47.839Z,17.89
2017-07-08T03:56:56.696Z,17.93
2017-07-08T03:58:05.554Z,17.87
2017-07-08T03:59:14.412Z,17.95
2017-07-08T04:00:23.602Z,17.87
2017-07-08T04:01:32.457Z,17.86
2017-07-08T04:02:41.318Z,17.77
2017-07-08T04:03:50.171Z,17.77
2017-07-08T04:04:59.076Z,17.92
2017-07-08T04:06:07.931Z,17.89
2017-07-08T04:07:16.788Z,17.9
2017-07-08T04:08:25.645Z,17.89
2017-07-08T04:09:34.501Z,17.92
2017-07-08T04:10:43.507Z,17.87
2017-07-08T04:11:52.365Z,17.86
2017-07-08T04:13:01.223Z,17.86
2017-07-08T04:14:10.081Z,17.79
2017-07-08T04:15:18.938Z,17.81
2017-07-08T04:16:28.427Z,17.75
2017-07-08T04:17:37.284Z,17.78
2017-07-08T04:18:46.142Z,17.92
2017-07-08T04:19:55.332Z,17.93
2017-07-08T04:21:04.189Z,17.9
2017-07-08T04:22:13.094Z,17.86
2017-07-08T04:23:21.950Z,17.9
2017-07-08T04:24:30.810Z,17.97
2017-07-08T04:25:39.666Z,17.87
2017-07-08T04:26:48.521Z,17.92
2017-07-08T04:27:57.428Z,17.93
2017-07-08T04:29:06.285Z,17.93
2017-07-08T04:30:15.141Z,17.92
2017-07-08T04:31:23.998Z,17.95
2017-07-08T04:32:32.854Z,17.99
2017-07-08T04:33:41.863Z,17.89
2017-07-08T04:34:50.720Z,17.9
2017-07-08T04:35:59.577Z,17.87
2017-07-08T04:37:08.432Z,17.9
2017-07-08T04:38:17.290Z,17.81
2017-07-08T04:39:26.540Z,17.9
2017-07-08T04:40:35.391Z,17.9
2017-07-08T04:41:44.248Z,17.86
2017-07-08T04:42:53.103Z,17.82
2017-07-08T04:44:01.959Z,17.89
2017-07-08T04:45:11.116Z,17.93
2017-07-08T04:46:19.973Z,17.81
2017-07-08T04:47:28.831Z,17.92
2017-07-08T04:48:37.687Z,17.89
2017-07-08T04:49:46.545Z,17.81
2017-07-08T04:50:55.451Z,17.79
2017-07-08T04:52:04.308Z,17.81
2017-07-08T04:53:13.164Z,17.79
2017-07-08T04:54:22.019Z,17.74
2017-07-08T04:55:30.876Z,17.7
2017-07-08T04:56:39.735Z,17.63
2017-07-08T04:57:48.594Z,17.58
2017-07-08T04:58:57.450Z,17.58
2017-07-08T05:00:06.311Z,17.55
2017-07-08T05:01:15.169Z,17.51
2017-07-08T05:02:24.077Z,17.55
2017-07-08T05:03:32.931Z,17.52
2017-07-08T05:04:41.789Z,17.49
2017-07-08T05:05:50.645Z,17.49
2017-07-08T05:06:59.501Z,17.58
2017-07-08T05:08:08.358Z,17.56
2017-07-08T05:09:17.213Z,17.54
2017-07-08T05:10:26.069Z,17.59
2017-07-08T05:11:34.928Z,17.62
2017-07-08T05:12:43.786Z,17.48
2017-07-08T05:13:52.638Z,17.46
2017-07-08T05:15:01.495Z,17.43
2017-07-08T05:16:10.349Z,17.41
2017-07-08T05:17:19.203Z,17.33
2017-07-08T05:18:28.058Z,17.36
2017-07-08T05:19:37.066Z,17.41
2017-07-08T05:20:45.923Z,17.31
2017-07-08T05:21:54.779Z,17.4
2017-07-08T05:23:03.634Z,17.51
2017-07-08T05:24:12.489Z,17.43
2017-07-08T05:25:21.442Z,17.37
2017-07-08T05:26:30.299Z,17.31
2017-07-08T05:27:39.154Z,17.3
2017-07-08T05:28:48.009Z,17.3
2017-07-08T05:29:56.866Z,17.31
2017-07-08T05:31:05.773Z,17.33
2017-07-08T05:32:14.627Z,17.36
2017-07-08T05:33:23.484Z,17.36
2017-07-08T05:34:32.340Z,17.38
2017-07-08T05:35:41.195Z,17.25
2017-07-08T05:36:50.353Z,17.3
2017-07-08T05:37:59.209Z,17.34
2017-07-08T05:39:08.067Z,17.4
2017-07-08T05:40:16.921Z,17.33
2017-07-08T05:41:25.777Z,17.38
2017-07-08T05:42:34.786Z,17.36
2017-07-08T05:43:43.642Z,17.4
2017-07-08T05:44:52.500Z,17.33
2017-07-08T05:46:01.359Z,17.38
2017-07-08T05:47:10.214Z,17.44
2017-07-08T05:48:19.126Z,17.33
2017-07-08T05:49:27.982Z,17.4
2017-07-08T05:50:36.843Z,17.33
2017-07-08T05:51:46.042Z,17.36
2017-07-08T05:52:54.901Z,17.36
2017-07-08T05:54:03.858Z,17.31
2017-07-08T05:55:12.719Z,17.36
2017-07-08T05:56:21.903Z,17.31
2017-07-08T05:57:30.762Z,17.33
2017-07-08T05:58:39.618Z,17.37
2017-07-08T05:59:48.474Z,17.36
2017-07-08T06:00:57.330Z,17.33
2017-07-08T06:02:06.186Z,17.23
2017-07-08T06:03:15.044Z,17.31
2017-07-08T06:04:23.900Z,17.3
2017-07-08T06:05:32.857Z,17.31
2017-07-08T06:06:41.712Z,17.3
2017-07-08T06:07:50.569Z,17.37
2017-07-08T06:08:59.426Z,17.34
2017-07-08T06:10:08.284Z,17.36
2017-07-08T06:11:17.293Z,17.31
2017-07-08T06:12:26.148Z,17.33
2017-07-08T06:13:35.005Z,17.33
2017-07-08T06:14:43.861Z,17.33
2017-07-08T06:15:52.717Z,17.4
2017-07-08T06:17:01.872Z,17.37
2017-07-08T06:18:10.728Z,17.37
2017-07-08T06:19:19.587Z,17.37
2017-07-08T06:20:28.462Z,17.41
2017-07-08T06:21:37.297Z,17.36
2017-07-08T06:22:46.454Z,17.46
2017-07-08T06:23:55.309Z,17.4
2017-07-08T06:25:04.164Z,17.4
2017-07-08T06:26:13.356Z,17.44
2017-07-08T06:27:22.211Z,17.37
2017-07-08T06:28:31.068Z,17.43
2017-07-08T06:29:39.924Z,17.49
2017-07-08T06:30:48.787Z,17.48
2017-07-08T06:31:57.637Z,17.52
2017-07-08T06:33:06.496Z,17.55
2017-07-08T06:34:15.401Z,17.56
2017-07-08T06:35:24.259Z,17.54
2017-07-08T06:36:33.114Z,17.56
2017-07-08T06:37:41.973Z,17.51
2017-07-08T06:38:50.828Z,17.58
2017-07-08T06:40:00.071Z,17.66
2017-07-08T06:41:08.928Z,17.64
2017-07-08T06:42:17.784Z,17.66
2017-07-08T06:43:26.638Z,17.7
2017-07-08T06:44:35.495Z,17.64
2017-07-08T06:45:44.502Z,17.74
2017-07-08T06:46:53.358Z,17.74
2017-07-08T06:48:02.218Z,17.72
2017-07-08T06:49:11.076Z,17.74
2017-07-08T06:50:19.934Z,17.79
2017-07-08T06:51:28.947Z,17.74
2017-07-08T06:52:37.804Z,17.79
2017-07-08T06:53:46.659Z,17.72
2017-07-08T06:54:55.515Z,17.81
2017-07-08T06:56:04.372Z,17.87
2017-07-08T06:57:13.280Z,17.89
2017-07-08T06:58:22.136Z,17.9
2017-07-08T06:59:30.992Z,18.03
2017-07-08T07:00:39.850Z,18.12
2017-07-08T07:01:48.709Z,18.03
2017-07-08T07:02:57.670Z,18.02
2017-07-08T07:04:06.524Z,18.03
2017-07-08T07:05:15.380Z,18.21
2017-07-08T07:06:24.237Z,18.15
2017-07-08T07:07:33.094Z,18.18
2017-07-08T07:08:42.153Z,18.17
2017-07-08T07:09:51.011Z,18.15
2017-07-08T07:10:59.867Z,18.2
2017-07-08T07:12:08.726Z,18.2
2017-07-08T07:13:17.583Z,18.26
2017-07-08T07:14:26.866Z,18.3
2017-07-08T07:15:35.684Z,18.3
2017-07-08T07:16:44.541Z,18.29
2017-07-08T07:17:53.399Z,18.33
2017-07-08T07:19:02.257Z,18.41
2017-07-08T07:20:11.267Z,18.47
2017-07-08T07:21:20.124Z,18.51
2017-07-08T07:22:28.979Z,18.45
2017-07-08T07:23:37.838Z,18.57
2017-07-08T07:24:46.696Z,18.54
2017-07-08T07:25:55.804Z,18.58
2017-07-08T07:27:04.662Z,18.66
2017-07-08T07:28:13.522Z,18.57
2017-07-08T07:29:22.376Z,18.6
2017-07-08T07:30:31.233Z,18.69
2017-07-08T07:31:40.141Z,18.69
2017-07-08T07:32:48.997Z,18.7
2017-07-08T07:33:57.855Z,18.8
2017-07-08T07:35:06.712Z,18.78
2017-07-08T07:36:15.570Z,18.7
2017-07-08T07:37:24.584Z,18.82
2017-07-08T07:38:33.389Z,18.88
2017-07-08T07:39:42.246Z,18.85
2017-07-08T07:40:51.104Z,18.98
2017-07-08T07:41:59.963Z,18.9
2017-07-08T07:43:08.972Z,18.95
2017-07-08T07:44:18.164Z,19.08
2017-07-08T07:45:27.022Z,19.11
2017-07-08T07:46:35.879Z,19.08
2017-07-08T07:47:44.737Z,19.14
2017-07-08T07:48:53.646Z,19.19
2017-07-08T07:50:02.505Z,19.26
2017-07-08T07:51:11.363Z,19.29
2017-07-08T07:52:20.223Z,19.32
2017-07-08T07:53:29.083Z,19.39
2017-07-08T07:54:37.992Z,19.44
2017-07-08T07:55:46.850Z,19.4
2017-07-08T07:56:55.712Z,19.41
2017-07-08T07:58:04.566Z,19.4
2017-07-08T07:59:13.423Z,19.44
2017-07-08T08:00:22.333Z,19.46
2017-07-08T08:01:31.194Z,19.44
2017-07-08T08:02:40.052Z,19.39
2017-07-08T08:03:48.912Z,19.33
2017-07-08T08:04:57.772Z,19.31
2017-07-08T08:06:06.781Z,19.32
2017-07-08T08:07:15.640Z,19.39
2017-07-08T08:08:24.499Z,19.44
2017-07-08T08:09:33.356Z,19.41
2017-07-08T08:10:42.217Z,19.46
2017-07-08T08:11:51.124Z,19.44
2017-07-08T08:12:59.981Z,19.46
2017-07-08T08:14:08.840Z,19.47
2017-07-08T08:15:17.699Z,19.56
2017-07-08T08:16:26.888Z,19.63
2017-07-08T08:17:35.797Z,19.61
2017-07-08T08:18:44.657Z,19.59
2017-07-08T08:19:53.516Z,19.61
2017-07-08T08:21:02.371Z,19.59
2017-07-08T08:22:11.226Z,19.68
2017-07-08T08:23:20.566Z,19.68
2017-07-08T08:24:29.756Z,19.74
2017-07-08T08:25:38.614Z,19.76
2017-07-08T08:26:47.807Z,19.87
2017-07-08T08:27:56.666Z,19.94
2017-07-08T08:29:05.576Z,19.96
2017-07-08T08:30:14.433Z,20.06
2017-07-08T08:31:23.637Z,20.08
2017-07-08T08:32:32.496Z,20.11
2017-07-08T08:33:41.358Z,20.05
2017-07-08T08:34:50.361Z,20.05
2017-07-08T08:35:59.221Z,20.05
2017-07-08T08:37:08.081Z,19.98
2017-07-08T08:38:16.938Z,20.08
2017-07-08T08:39:25.797Z,20.14
2017-07-08T08:40:34.755Z,20.18
2017-07-08T08:41:43.615Z,20.2
2017-07-08T08:42:52.473Z,20.18
2017-07-08T08:44:01.331Z,20.32
2017-07-08T08:45:10.187Z,20.28
2017-07-08T08:46:19.345Z,20.36
2017-07-08T08:47:28.203Z,20.42
2017-07-08T08:48:37.064Z,20.51
2017-07-08T08:49:45.921Z,20.5
2017-07-08T08:50:54.778Z,20.52
2017-07-08T08:52:03.685Z,20.61
2017-07-08T08:53:12.543Z,20.72
2017-07-08T08:54:21.402Z,20.8
2017-07-08T08:55:30.262Z,20.85
2017-07-08T08:56:39.122Z,20.84
2017-07-08T08:57:48.082Z,20.88
2017-07-08T08:58:56.938Z,20.82
2017-07-08T09:00:05.797Z,20.94
2017-07-08T09:01:14.667Z,20.91
2017-07-08T09:02:23.527Z,20.95
2017-07-08T09:03:32.386Z,20.89
2017-07-08T09:04:41.250Z,21.03
2017-07-08T09:05:50.112Z,21.04
2017-07-08T09:06:58.970Z,21.19
2017-07-08T09:08:07.829Z,21.24
2017-07-08T09:09:16.987Z,21.25
2017-07-08T09:10:25.847Z,21.32
2017-07-08T09:11:34.705Z,21.32
2017-07-08T09:12:43.565Z,21.4
2017-07-08T09:13:52.424Z,21.54
2017-07-08T09:15:01.331Z,21.49
2017-07-08T09:16:10.189Z,21.49
2017-07-08T09:17:19.045Z,21.61
2017-07-08T09:18:27.903Z,21.54
2017-07-08T09:19:36.763Z,21.67
2017-07-08T09:20:46.109Z,21.68
2017-07-08T09:21:54.967Z,21.91
2017-07-08T09:23:03.827Z,22.05
2017-07-08T09:24:12.688Z,22.09
2017-07-08T09:25:21.548Z,22.18
2017-07-08T09:26:30.561Z,22.21
2017-07-08T09:27:39.420Z,22.24
2017-07-08T09:28:48.282Z,22.07
2017-07-08T09:29:57.143Z,22.09
2017-07-08T09:31:06.005Z,22.17
2017-07-08T09:32:14.920Z,22.2
2017-07-08T09:33:23.775Z,22.27
2017-07-08T09:34:32.638Z,22.35
2017-07-08T09:35:41.502Z,22.21
2017-07-08T09:36:50.360Z,22.28
2017-07-08T09:37:59.471Z,22.39
2017-07-08T09:39:08.331Z,22.4
2017-07-08T09:40:17.195Z,22.42
2017-07-08T09:41:26.061Z,22.52
2017-07-08T09:42:34.925Z,22.51
2017-07-08T09:43:43.934Z,22.47
2017-07-08T09:44:52.794Z,22.4
2017-07-08T09:46:01.656Z,22.39
2017-07-08T09:47:10.517Z,22.42
2017-07-08T09:48:19.377Z,22.42
2017-07-08T09:49:28.337Z,22.45
2017-07-08T09:50:37.198Z,22.46
2017-07-08T09:51:46.059Z,22.52
2017-07-08T09:52:54.922Z,22.45
2017-07-08T09:54:03.780Z,22.49
2017-07-08T09:55:12.943Z,22.46
2017-07-08T09:56:21.801Z,22.4
2017-07-08T09:57:30.661Z,22.52
2017-07-08T09:58:39.521Z,22.6
2017-07-08T09:59:48.383Z,22.68
2017-07-08T10:00:57.546Z,22.79
2017-07-08T10:02:06.404Z,22.85
2017-07-08T10:03:15.265Z,23
2017-07-08T10:04:24.126Z,22.9
2017-07-08T10:05:32.987Z,22.97
2017-07-08T10:06:41.847Z,23.07
2017-07-08T10:07:50.709Z,23.16
2017-07-08T10:08:59.570Z,23.22
2017-07-08T10:10:08.430Z,23.23
2017-07-08T10:11:17.292Z,23.22
2017-07-08T10:12:26.201Z,23.15
2017-07-08T10:13:35.398Z,23.12
2017-07-08T10:14:44.257Z,23.16
2017-07-08T10:15:53.121Z,23.22
2017-07-08T10:17:01.982Z,23.19
2017-07-08T10:18:10.995Z,23.19
2017-07-08T10:19:19.856Z,23.36
2017-07-08T10:20:28.717Z,23.53
2017-07-08T10:21:37.579Z,23.54
2017-07-08T10:22:46.442Z,23.72
2017-07-08T10:23:55.505Z,23.76
2017-07-08T10:25:04.368Z,23.94
2017-07-08T10:26:13.228Z,24.05
2017-07-08T10:27:22.091Z,24.03
2017-07-08T10:28:30.953Z,24.05
2017-07-08T10:29:39.916Z,23.9
2017-07-08T10:30:48.777Z,23.84
2017-07-08T10:31:57.641Z,23.85
2017-07-08T10:33:06.505Z,23.75
2017-07-08T10:34:15.704Z,23.83
2017-07-08T10:35:24.668Z,23.58
2017-07-08T10:36:33.529Z,23.53
2017-07-08T10:37:42.395Z,23.61
2017-07-08T10:38:51.247Z,23.6
2017-07-08T10:40:00.110Z,23.57
2017-07-08T10:41:09.225Z,23.6
2017-07-08T10:42:18.088Z,23.65
2017-07-08T10:43:26.952Z,23.53
2017-07-08T10:44:35.816Z,23.47
2017-07-08T10:45:44.678Z,23.53
2017-07-08T10:46:53.841Z,23.53
2017-07-08T10:48:02.704Z,23.53
2017-07-08T10:49:11.566Z,23.53
2017-07-08T10:50:20.424Z,23.51
2017-07-08T10:51:29.285Z,23.5
2017-07-08T10:52:38.295Z,23.42
2017-07-08T10:53:47.159Z,23.38
2017-07-08T10:54:56.021Z,23.39
2017-07-08T10:56:04.882Z,23.35
2017-07-08T10:57:13.745Z,23.36
2017-07-08T10:58:22.856Z,23.22
2017-07-08T10:59:31.716Z,23.16
2017-07-08T11:00:40.576Z,23.19
2017-07-08T11:01:49.437Z,23.22
2017-07-08T11:02:58.297Z,23.22
2017-07-08T11:04:07.309Z,23.2
2017-07-08T11:05:16.168Z,23.12
2017-07-08T11:06:25.028Z,23.09
2017-07-08T11:07:33.892Z,23.12
2017-07-08T11:08:42.755Z,22.97
2017-07-08T11:09:51.818Z,22.76
2017-07-08T11:11:01.009Z,22.33
2017-07-08T11:12:09.870Z,21.99
2017-07-08T11:13:18.730Z,21.75
2017-07-08T11:14:27.594Z,21.25
2017-07-08T11:15:36.755Z,21.01
2017-07-08T11:16:45.615Z,21.01
2017-07-08T11:17:54.473Z,20.89
2017-07-08T11:19:03.333Z,20.8
2017-07-08T11:20:12.191Z,20.77
2017-07-08T11:21:21.052Z,20.79
2017-07-08T11:22:29.909Z,20.77
2017-07-08T11:23:38.768Z,20.84
2017-07-08T11:24:47.630Z,20.8
2017-07-08T11:25:56.490Z,20.79
2017-07-08T11:27:05.351Z,20.95
2017-07-08T11:28:14.208Z,20.7
2017-07-08T11:29:23.069Z,20.76
2017-07-08T11:30:31.927Z,20.74
2017-07-08T11:31:40.787Z,20.77
2017-07-08T11:32:49.646Z,20.79
2017-07-08T11:33:58.506Z,20.84
2017-07-08T11:35:07.361Z,20.8
2017-07-08T11:36:16.219Z,20.74
2017-07-08T11:37:25.077Z,20.8
2017-07-08T11:38:33.988Z,20.79
2017-07-08T11:39:42.845Z,20.87
2017-07-08T11:40:51.706Z,20.91
2017-07-08T11:42:00.567Z,20.61
2017-07-08T11:43:09.770Z,20.5
2017-07-08T11:44:18.678Z,20.47
2017-07-08T11:45:27.537Z,20.36
2017-07-08T11:46:36.396Z,20.31
2017-07-08T11:47:45.254Z,20.16
2017-07-08T11:48:54.117Z,20.05
2017-07-08T11:50:03.407Z,20.06
2017-07-08T11:51:12.600Z,20.14
2017-07-08T11:52:21.457Z,20.06
2017-07-08T11:53:30.314Z,20.02
2017-07-08T11:54:39.511Z,19.92
2017-07-08T11:55:48.471Z,19.99
2017-07-08T11:56:57.328Z,20.08
2017-07-08T11:58:06.188Z,20.08
2017-07-08T11:59:15.047Z,20.08
2017-07-08T12:00:23.909Z,20.1
2017-07-08T12:01:33.070Z,20.18
2017-07-08T12:02:41.928Z,20.29
2017-07-08T12:03:50.782Z,20.32
2017-07-08T12:04:59.642Z,20.35
2017-07-08T12:06:08.500Z,20.43
2017-07-08T12:07:17.659Z,20.5
2017-07-08T12:08:26.518Z,20.48
2017-07-08T12:09:35.376Z,20.51
2017-07-08T12:10:44.236Z,20.47
2017-07-08T12:11:53.096Z,20.5
2017-07-08T12:13:02.005Z,20.48
2017-07-08T12:14:10.865Z,20.43
2017-07-08T12:15:19.725Z,20.61
2017-07-08T12:16:28.582Z,20.69
2017-07-08T12:17:37.444Z,20.5
2017-07-08T12:18:46.403Z,20.5
2017-07-08T12:19:55.261Z,20.33
2017-07-08T12:21:04.120Z,20.14
2017-07-08T12:22:12.980Z,20.08
2017-07-08T12:23:21.836Z,20.08
2017-07-08T12:24:30.745Z,20.05
2017-07-08T12:25:39.605Z,20.1
2017-07-08T12:26:48.464Z,19.91
2017-07-08T12:27:57.323Z,19.73
2017-07-08T12:29:06.183Z,19.68
2017-07-08T12:30:15.089Z,19.71
2017-07-08T12:31:23.958Z,19.68
2017-07-08T12:32:32.808Z,19.73
2017-07-08T12:33:41.669Z,19.56
2017-07-08T12:34:50.528Z,19.77
2017-07-08T12:35:59.439Z,19.78
2017-07-08T12:37:08.299Z,19.71
2017-07-08T12:38:17.155Z,19.59
2017-07-08T12:39:26.013Z,19.54
2017-07-08T12:40:34.873Z,19.4
2017-07-08T12:41:44.031Z,19.5
2017-07-08T12:42:52.890Z,19.41
2017-07-08T12:44:01.749Z,19.63
2017-07-08T12:45:10.604Z,19.61
2017-07-08T12:46:19.460Z,19.51
2017-07-08T12:47:28.466Z,19.4
2017-07-08T12:48:37.324Z,19.31
2017-07-08T12:49:46.181Z,19.31
2017-07-08T12:50:55.041Z,19.23
2017-07-08T12:52:03.900Z,19.11
2017-07-08T12:53:12.908Z,19.1
2017-07-08T12:54:21.766Z,19.04
2017-07-08T12:55:30.627Z,19.08
2017-07-08T12:56:39.483Z,19.02
2017-07-08T12:57:48.342Z,18.91
2017-07-08T12:58:57.350Z,18.98
2017-07-08T13:00:06.205Z,18.78
2017-07-08T13:01:15.063Z,18.8
2017-07-08T13:02:23.920Z,18.76
2017-07-08T13:03:32.777Z,18.82
2017-07-08T13:04:41.637Z,18.95
2017-07-08T13:05:50.494Z,18.94
2017-07-08T13:06:59.353Z,18.87
2017-07-08T13:08:08.212Z,18.87
2017-07-08T13:09:17.070Z,18.98
2017-07-08T13:10:25.928Z,18.92
2017-07-08T13:11:34.787Z,19.22
2017-07-08T13:12:43.648Z,19.39
2017-07-08T13:13:52.506Z,19.59
2017-07-08T13:15:01.363Z,19.73
2017-07-08T13:16:10.370Z,19.74
2017-07-08T13:17:19.232Z,19.95
2017-07-08T13:18:28.095Z,19.96
2017-07-08T13:19:36.953Z,19.96
2017-07-08T13:20:45.812Z,20.03
2017-07-08T13:21:54.923Z,20.06
2017-07-08T13:23:04.114Z,20.05
2017-07-08T13:24:12.976Z,20.17
2017-07-08T13:25:22.170Z,20.21
2017-07-08T13:26:31.030Z,20.31
2017-07-08T13:27:39.942Z,20.38
2017-07-08T13:28:48.804Z,20.51
2017-07-08T13:29:57.667Z,20.47
2017-07-08T13:31:06.528Z,20.48
2017-07-08T13:32:15.393Z,20.51
2017-07-08T13:33:24.406Z,20.59
2017-07-08T13:34:33.264Z,20.7
2017-07-08T13:35:42.129Z,20.72
2017-07-08T13:36:50.994Z,20.95
2017-07-08T13:37:59.856Z,21.06
2017-07-08T13:39:09.069Z,21.27
2017-07-08T13:40:17.930Z,21.24
2017-07-08T13:41:26.793Z,21.47
2017-07-08T13:42:35.657Z,21.75
2017-07-08T13:43:44.521Z,21.84
2017-07-08T13:44:53.487Z,21.92
2017-07-08T13:46:02.348Z,22.03
2017-07-08T13:47:11.214Z,22.06
2017-07-08T13:48:20.079Z,22
2017-07-08T13:49:29.283Z,21.98
2017-07-08T13:50:38.447Z,21.77
2017-07-08T13:51:47.312Z,21.67
2017-07-08T13:52:56.176Z,21.64
2017-07-08T13:54:05.040Z,21.65
2017-07-08T13:55:13.901Z,21.59
2017-07-08T13:56:22.864Z,21.61
2017-07-08T13:57:31.730Z,21.46
2017-07-08T13:58:40.595Z,21.56
2017-07-08T13:59:49.456Z,21.5
2017-07-08T14:00:58.657Z,21.58
2017-07-08T14:02:07.821Z,21.77
2017-07-08T14:03:16.683Z,21.69
2017-07-08T14:04:25.545Z,21.82
2017-07-08T14:05:34.404Z,21.77
2017-07-08T14:06:43.267Z,21.84
2017-07-08T14:07:52.181Z,21.88
2017-07-08T14:09:01.045Z,21.98
2017-07-08T14:10:09.908Z,21.94
2017-07-08T14:11:18.771Z,22.09
2017-07-08T14:12:27.633Z,22.2
2017-07-08T14:13:36.646Z,22.28
2017-07-08T14:14:45.509Z,22.33
2017-07-08T14:15:54.369Z,22.49
2017-07-08T14:17:03.230Z,22.6
2017-07-08T14:18:12.100Z,22.86
2017-07-08T14:19:21.164Z,23.13
2017-07-08T14:20:30.030Z,23.55
2017-07-08T14:21:38.899Z,23.61
2017-07-08T14:22:47.766Z,23.63
2017-07-08T14:23:56.632Z,23.75
2017-07-08T14:25:05.596Z,23.95
2017-07-08T14:26:14.799Z,24.05
2017-07-08T14:27:23.666Z,23.94
2017-07-08T14:28:32.534Z,23.97
2017-07-08T14:29:41.402Z,23.93
2017-07-08T14:30:50.472Z,23.76
2017-07-08T14:31:59.340Z,23.75
2017-07-08T14:33:08.209Z,23.63
2017-07-08T14:34:17.073Z,23.7
2017-07-08T14:35:25.940Z,23.73
2017-07-08T14:36:34.857Z,24.09
2017-07-08T14:37:43.725Z,24.6
2017-07-08T14:38:52.596Z,24.64
2017-07-08T14:40:01.464Z,24.69
2017-07-08T14:41:10.333Z,24.8
2017-07-08T14:42:19.588Z,24.77
2017-07-08T14:43:28.458Z,24.85
2017-07-08T14:44:37.326Z,24.57
2017-07-08T14:45:46.195Z,24.4
2017-07-08T14:46:55.062Z,24.16
2017-07-08T14:48:03.980Z,24.15
2017-07-08T14:49:12.846Z,23.93
2017-07-08T14:50:21.712Z,23.95
2017-07-08T14:51:30.579Z,23.65